Terminal Aerodrome Forecast
Issued by NWS

Home | Current Version | Previous Version | Text Only | Print | Product List | Glossary On
Versions: 1 2 3 4 5 6 7 8 9 10 11 12 13 14 15 16 17
000
FTUS46 KPQR 030531
TAFONP
TAF
KONP 030531Z 0306/0406 21009KT P6SM VCSH OVC011
     FM031200 VRB03KT P6SM OVC020
     FM031900 34013KT P6SM OVC025
     FM032200 34013KT P6SM -SHRA OVC025=

USA.gov is the U.S. government's official web portal to all federal, state and local government web resources and services.